Time;durP1;ratioP1;P1;durP2;ratioP2;P2;SDS_P1;SDS_P2;PMS_P1;PMS_P2;Temp;Humidity;BMP_temperature;BMP_pressure;BME280_temperature;BME280_humidity;BME280_pressure;Samples;Min_cycle;Max_cycle;Signal;HPM_P1;HPM_P2
2021/03/20 00:00:36;;;;;;;20.25;6.25;;;1.10;88.10;;;;;;4944169;28;20180;-79
2021/03/20 00:03:01;;;;;;;14.73;5.50;;;1.10;88.40;;;;;;4949113;29;20660;-78
2021/03/20 00:05:28;;;;;;;18.93;6.50;;;1.10;88.70;;;;;;4945080;29;20292;-80
2021/03/20 00:07:55;;;;;;;22.80;7.20;;;1.10;88.80;;;;;;4943847;29;20988;-78
2021/03/20 00:10:23;;;;;;;16.52;5.90;;;1.10;88.80;;;;;;4945249;29;20177;-79
2021/03/20 00:12:50;;;;;;;12.48;5.75;;;1.00;88.80;;;;;;4945637;29;20177;-79
2021/03/20 00:15:19;;;;;;;8.80;5.80;;;1.00;88.80;;;;;;4939865;29;20240;-79
2021/03/20 00:17:45;;;;;;;18.33;7.22;;;1.00;88.90;;;;;;4939947;29;20256;-79
2021/03/20 00:20:16;;;;;;;14.30;6.45;;;0.90;89.60;;;;;;4941483;29;20208;-81
2021/03/20 00:22:42;;;;;;;14.13;5.80;;;0.90;90.30;;;;;;4961251;28;20191;-81
2021/03/20 00:25:08;;;;;;;13.73;6.33;;;0.80;90.40;;;;;;4943262;29;20326;-81
2021/03/20 00:27:34;;;;;;;18.13;6.65;;;0.70;91.10;;;;;;4943018;29;20423;-81
2021/03/20 00:30:01;;;;;;;13.77;6.55;;;0.80;91.10;;;;;;4943330;29;20264;-81
2021/03/20 00:32:27;;;;;;;15.52;6.53;;;0.80;91.00;;;;;;4943741;29;20227;-82
2021/03/20 00:34:53;;;;;;;11.73;5.60;;;0.80;90.90;;;;;;4944458;29;20638;-81
2021/03/20 00:37:19;;;;;;;13.75;5.82;;;0.80;91.10;;;;;;4943577;29;20459;-82
2021/03/20 00:39:45;;;;;;;16.67;6.80;;;0.80;91.30;;;;;;4943982;29;20591;-82
2021/03/20 00:42:11;;;;;;;17.35;5.80;;;0.80;91.20;;;;;;4944012;29;20587;-82
2021/03/20 00:44:37;;;;;;;11.67;5.60;;;0.70;91.40;;;;;;4944045;29;20177;-82
2021/03/20 00:47:03;;;;;;;18.90;7.53;;;0.70;91.40;;;;;;4944686;29;20443;-81
2021/03/20 00:49:29;;;;;;;16.30;6.72;;;0.70;91.40;;;;;;4943868;29;20861;-81
2021/03/20 00:51:56;;;;;;;14.90;6.60;;;0.70;91.30;;;;;;4944128;29;20228;-82
2021/03/20 00:54:22;;;;;;;13.75;6.40;;;0.70;91.10;;;;;;4944717;29;20423;-82
2021/03/20 00:56:48;;;;;;;21.85;7.07;;;0.80;91.00;;;;;;4960845;29;20534;-81
2021/03/20 00:59:14;;;;;;;16.77;6.73;;;0.80;91.30;;;;;;4944415;29;20188;-81
2021/03/20 01:01:40;;;;;;;19.57;6.97;;;0.80;91.40;;;;;;4944092;29;20457;-81
2021/03/20 01:04:06;;;;;;;16.40;6.40;;;0.80;91.40;;;;;;4943710;29;20436;-81
2021/03/20 01:06:32;;;;;;;15.53;6.87;;;0.70;91.60;;;;;;4942942;29;20634;-81
2021/03/20 01:08:59;;;;;;;11.23;6.22;;;0.80;91.90;;;;;;4942729;29;20450;-81
2021/03/20 01:11:27;;;;;;;14.73;5.93;;;0.80;92.00;;;;;;4942561;29;20199;-82
2021/03/20 01:13:54;;;;;;;15.07;6.38;;;0.90;92.10;;;;;;4943131;29;20186;-82
2021/03/20 01:16:21;;;;;;;13.20;5.82;;;0.90;91.80;;;;;;4943075;29;20641;-82
2021/03/20 01:18:47;;;;;;;15.13;5.85;;;0.90;91.70;;;;;;4942792;29;20646;-82
2021/03/20 01:21:13;;;;;;;11.73;6.20;;;1.00;91.70;;;;;;4943705;29;20209;-81
2021/03/20 01:23:39;;;;;;;17.83;6.68;;;1.00;91.70;;;;;;4944196;29;20435;-81
2021/03/20 01:26:50;;;;;;;22.50;6.53;;;1.00;91.80;;;;;;5122732;27;20554;-83
2021/03/20 01:29:16;;;;;;;16.90;7.50;;;1.10;91.90;;;;;;5135515;28;20573;-80
2021/03/20 01:31:42;;;;;;;15.30;5.70;;;1.10;91.80;;;;;;5137351;28;20883;-80
2021/03/20 01:34:07;;;;;;;9.97;5.53;;;1.10;91.80;;;;;;5117705;28;20176;-80
2021/03/20 01:36:33;;;;;;;18.30;7.13;;;1.20;91.50;;;;;;5118366;28;20186;-80
2021/03/20 01:38:59;;;;;;;14.17;6.00;;;1.20;91.80;;;;;;5117885;28;20996;-80
2021/03/20 01:41:26;;;;;;;23.67;7.37;;;1.30;91.80;;;;;;5118002;28;20433;-80
2021/03/20 01:43:55;;;;;;;16.27;7.03;;;1.30;92.00;;;;;;5117779;28;20413;-80
2021/03/20 01:46:52;;;;;;;20.20;7.07;;;1.30;92.10;;;;;;5117191;28;20198;-80
2021/03/20 01:49:32;;;;;;;19.42;7.32;;;1.40;92.20;;;;;;5117047;28;20187;-80
2021/03/20 01:52:19;;;;;;;14.20;6.70;;;1.40;92.20;;;;;;5115392;28;20187;-80
2021/03/20 01:55:08;;;;;;;23.77;7.78;;;1.40;92.00;;;;;;5116429;28;20240;-80
2021/03/20 01:57:46;;;;;;;15.75;5.82;;;1.50;91.70;;;;;;5117559;28;20180;-80
2021/03/20 02:00:32;;;;;;;18.67;7.18;;;1.50;91.50;;;;;;5118231;28;20174;-80
2021/03/20 02:03:01;;;;;;;19.73;6.95;;;1.50;91.70;;;;;;5117705;28;20579;-81
2021/03/20 02:05:30;;;;;;;13.10;6.40;;;1.60;92.00;;;;;;5118177;28;20195;-80
2021/03/20 02:07:57;;;;;;;16.83;8.45;;;1.60;92.10;;;;;;5119048;28;20167;-80
2021/03/20 02:10:30;;;;;;;15.50;6.70;;;1.60;92.10;;;;;;5118980;28;20175;-80
2021/03/20 02:12:59;;;;;;;19.80;7.00;;;1.70;92.00;;;;;;5118409;28;20619;-80
2021/03/20 02:15:44;;;;;;;27.80;7.30;;;1.70;92.00;;;;;;5118291;28;20182;-80
2021/03/20 02:18:19;;;;;;;17.52;7.65;;;1.80;92.10;;;;;;5119122;28;20182;-83
2021/03/20 02:21:12;;;;;;;20.25;8.30;;;1.80;92.20;;;;;;5116825;28;20194;-77
2021/03/20 02:23:56;;;;;;;16.75;7.55;;;1.80;92.00;;;;;;5107646;28;20175;-77
2021/03/20 02:26:40;;;;;;;17.30;7.70;;;1.80;92.00;;;;;;5107507;28;20210;-78
2021/03/20 02:29:33;;;;;;;20.58;7.97;;;1.80;91.80;;;;;;5107677;28;20178;-77
2021/03/20 02:32:25;;;;;;;14.43;6.68;;;1.90;91.60;;;;;;5107382;28;20188;-77
2021/03/20 02:35:12;;;;;;;17.13;9.00;;;1.90;91.40;;;;;;5107424;28;20175;-77
2021/03/20 02:37:49;;;;;;;17.05;7.65;;;1.90;91.40;;;;;;5097110;28;20195;-77
2021/03/20 02:40:22;;;;;;;23.88;8.10;;;2.00;91.40;;;;;;5093773;28;20541;-77
2021/03/20 02:42:58;;;;;;;15.88;7.30;;;2.00;91.30;;;;;;5093490;28;20637;-77
2021/03/20 02:45:34;;;;;;;17.13;7.75;;;2.00;91.00;;;;;;5093702;28;20302;-77
2021/03/20 02:48:29;;;;;;;13.95;6.75;;;2.10;90.90;;;;;;5093701;28;20254;-77
2021/03/20 02:51:08;;;;;;;17.05;6.55;;;2.10;90.90;;;;;;5089420;28;20232;-77
2021/03/20 02:53:41;;;;;;;16.67;7.07;;;2.10;90.60;;;;;;5093494;28;20259;-77
2021/03/20 02:56:12;;;;;;;16.85;7.70;;;2.10;90.60;;;;;;5093453;28;20168;-77
2021/03/20 02:58:53;;;;;;;17.88;7.75;;;2.20;90.50;;;;;;5093422;28;20174;-77
2021/03/20 03:01:22;;;;;;;15.50;6.00;;;2.20;90.40;;;;;;5093485;28;20199;-77
2021/03/20 03:03:49;;;;;;;21.63;7.30;;;2.20;90.30;;;;;;5093251;28;20552;-77
2021/03/20 03:06:20;;;;;;;16.15;6.55;;;2.20;89.80;;;;;;5093170;28;20199;-77
2021/03/20 03:09:02;;;;;;;19.20;5.78;;;2.20;89.90;;;;;;5093240;28;20258;-77
2021/03/20 03:11:44;;;;;;;14.60;5.72;;;2.20;89.60;;;;;;5093078;28;20537;-77
2021/03/20 03:14:17;;;;;;;10.98;5.85;;;2.10;89.50;;;;;;5093134;28;20176;-77
2021/03/20 03:16:49;;;;;;;14.75;6.00;;;2.00;89.80;;;;;;5093158;28;20267;-77
2021/03/20 03:19:38;;;;;;;16.50;7.53;;;1.90;90.40;;;;;;5092937;28;20547;-77
2021/03/20 03:22:09;;;;;;;21.50;8.20;;;1.80;90.40;;;;;;5092370;28;20204;-77
2021/03/20 03:24:38;;;;;;;13.90;7.07;;;1.70;90.90;;;;;;5092689;28;20172;-77
2021/03/20 03:27:09;;;;;;;17.80;7.15;;;1.70;91.20;;;;;;5092637;28;20197;-78
2021/03/20 03:29:36;;;;;;;18.65;6.60;;;1.60;91.70;;;;;;5092810;28;20640;-78
2021/03/20 03:32:09;;;;;;;17.98;7.10;;;1.50;92.10;;;;;;5092396;28;20191;-77
2021/03/20 03:34:52;;;;;;;15.57;7.07;;;1.50;92.40;;;;;;5092920;28;20187;-77
2021/03/20 03:37:27;;;;;;;21.65;8.90;;;1.50;92.40;;;;;;5092652;28;20183;-77
2021/03/20 03:39:57;;;;;;;16.48;6.45;;;1.50;92.60;;;;;;5092647;28;20206;-77
2021/03/20 03:42:24;;;;;;;22.08;8.00;;;1.60;92.40;;;;;;5092614;28;20203;-77
2021/03/20 03:44:53;;;;;;;19.90;8.52;;;1.60;92.50;;;;;;5092388;28;20210;-77
2021/03/20 03:47:25;;;;;;;21.23;6.88;;;1.50;92.60;;;;;;5092471;28;20172;-77
2021/03/20 03:49:57;;;;;;;15.65;7.28;;;1.50;92.60;;;;;;5091316;28;20172;-77
2021/03/20 03:52:23;;;;;;;16.88;8.55;;;1.50;92.80;;;;;;5092043;28;20187;-77
2021/03/20 03:54:50;;;;;;;20.47;7.30;;;1.60;92.80;;;;;;5092549;28;20233;-77
2021/03/20 03:57:58;;;;;;;15.40;6.60;;;1.60;92.50;;;;;;5092286;28;20779;-77
2021/03/20 04:00:34;;;;;;;14.35;7.00;;;1.60;92.80;;;;;;5092095;28;20278;-77
2021/03/20 04:03:24;;;;;;;17.33;7.28;;;1.60;92.80;;;;;;5091963;28;20607;-77
2021/03/20 04:06:10;;;;;;;18.52;7.05;;;1.50;92.60;;;;;;5091864;28;20196;-77
2021/03/20 04:09:06;;;;;;;16.58;6.40;;;1.60;92.90;;;;;;5094301;28;20171;-79
2021/03/20 04:11:34;;;;;;;13.07;6.50;;;1.70;92.90;;;;;;5097128;28;20644;-79
2021/03/20 04:14:12;;;;;;;20.40;8.20;;;1.80;92.60;;;;;;5098071;28;20609;-78
2021/03/20 04:16:50;;;;;;;16.05;7.57;;;1.80;92.30;;;;;;5099265;28;20258;-77
2021/03/20 04:19:50;;;;;;;19.50;6.60;;;1.70;92.20;;;;;;5098688;28;20616;-77
2021/03/20 04:22:28;;;;;;;16.98;6.43;;;1.70;92.50;;;;;;5078172;28;20193;-77
2021/03/20 04:25:20;;;;;;;14.35;7.20;;;1.70;92.50;;;;;;5078305;28;20215;-77
2021/03/20 04:27:52;;;;;;;18.08;6.90;;;1.60;92.70;;;;;;5078412;28;20164;-77
2021/03/20 04:30:24;;;;;;;13.23;7.78;;;1.70;92.80;;;;;;5079095;28;20247;-77
2021/03/20 04:33:03;;;;;;;17.25;7.00;;;1.60;92.70;;;;;;5077986;28;20586;-78
2021/03/20 04:35:57;;;;;;;22.90;6.72;;;1.60;92.70;;;;;;5078924;28;20168;-77
2021/03/20 04:38:27;;;;;;;16.10;7.30;;;1.70;92.70;;;;;;5085441;28;20183;-78
2021/03/20 04:40:58;;;;;;;15.80;7.28;;;1.70;92.70;;;;;;5097823;28;20200;-78
2021/03/20 04:43:30;;;;;;;21.88;8.68;;;1.70;92.50;;;;;;5097617;28;20199;-77
2021/03/20 04:45:56;;;;;;;19.90;7.78;;;1.70;92.50;;;;;;5099090;28;20187;-78
2021/03/20 04:48:27;;;;;;;21.70;7.23;;;1.70;92.70;;;;;;5098259;28;20663;-78
2021/03/20 04:51:00;;;;;;;21.17;8.07;;;1.60;93.00;;;;;;5098149;28;20196;-78
2021/03/20 04:53:28;;;;;;;24.67;9.00;;;1.60;93.20;;;;;;5098118;28;20168;-78
2021/03/20 04:56:08;;;;;;;16.25;7.15;;;1.60;93.00;;;;;;5099311;28;20179;-78
2021/03/20 04:58:49;;;;;;;18.73;7.10;;;1.50;93.20;;;;;;5098666;28;20183;-78
2021/03/20 05:01:21;;;;;;;16.85;7.75;;;1.60;93.30;;;;;;5098063;28;20180;-78
2021/03/20 05:03:50;;;;;;;21.98;9.15;;;1.60;93.00;;;;;;5098258;28;20168;-77
2021/03/20 05:06:21;;;;;;;18.35;7.97;;;1.50;93.40;;;;;;5097752;28;20245;-78
2021/03/20 05:08:59;;;;;;;18.48;7.80;;;1.40;93.40;;;;;;5097504;28;20160;-78
2021/03/20 05:11:30;;;;;;;14.38;6.55;;;1.30;93.60;;;;;;5098553;28;20187;-77
2021/03/20 05:14:14;;;;;;;20.30;8.02;;;1.40;93.80;;;;;;5098945;28;20189;-78
2021/03/20 05:16:46;;;;;;;18.40;8.02;;;1.40;93.60;;;;;;5096967;28;20560;-80
2021/03/20 05:19:12;;;;;;;16.52;7.05;;;1.50;93.40;;;;;;5096735;28;20191;-79
2021/03/20 05:21:40;;;;;;;17.02;8.13;;;1.50;93.00;;;;;;5095546;28;20528;-79
2021/03/20 05:24:11;;;;;;;12.20;6.40;;;1.60;93.00;;;;;;5095793;28;20168;-79
2021/03/20 05:26:37;;;;;;;16.88;7.60;;;1.60;92.70;;;;;;5095793;28;20196;-79
2021/03/20 05:29:03;;;;;;;15.15;7.50;;;1.60;92.80;;;;;;5097632;28;20168;-79
2021/03/20 05:31:31;;;;;;;16.23;6.70;;;1.60;92.80;;;;;;5095932;28;20581;-79
2021/03/20 05:33:57;;;;;;;11.38;6.57;;;1.60;92.90;;;;;;5095966;28;20493;-79
2021/03/20 05:36:23;;;;;;;22.27;6.53;;;1.60;92.90;;;;;;5096037;28;20175;-79
2021/03/20 05:38:49;;;;;;;13.40;6.50;;;1.60;92.90;;;;;;5095774;28;20175;-80
2021/03/20 05:41:37;;;;;;;20.40;7.23;;;1.70;92.90;;;;;;5095895;28;20415;-80
2021/03/20 05:44:11;;;;;;;15.10;7.50;;;1.60;92.60;;;;;;5095320;28;20485;-80
2021/03/20 05:46:50;;;;;;;16.58;8.05;;;1.50;92.90;;;;;;5094866;28;20194;-80
2021/03/20 05:49:40;;;;;;;16.02;6.90;;;1.50;92.90;;;;;;5094818;28;20164;-79
2021/03/20 05:52:09;;;;;;;17.25;8.52;;;1.50;92.90;;;;;;5095601;28;20235;-80
2021/03/20 05:54:53;;;;;;;15.60;8.13;;;1.30;93.10;;;;;;5096144;28;20204;-80
2021/03/20 05:57:27;;;;;;;16.20;7.65;;;1.30;93.30;;;;;;5096892;28;20180;-81
2021/03/20 06:00:18;;;;;;;20.52;8.15;;;1.10;93.80;;;;;;5096569;28;20184;-81
2021/03/20 06:03:11;;;;;;;16.60;8.85;;;1.00;94.20;;;;;;5090858;28;20675;-81
2021/03/20 06:05:53;;;;;;;17.52;8.30;;;1.00;94.50;;;;;;5090617;28;20204;-80
2021/03/20 06:08:33;;;;;;;17.60;7.20;;;1.00;94.30;;;;;;5096985;28;20664;-80
2021/03/20 06:11:28;;;;;;;20.67;8.35;;;1.00;94.40;;;;;;5096180;28;20280;-80
2021/03/20 06:14:21;;;;;;;15.65;6.63;;;1.10;94.60;;;;;;5099732;28;20732;-80
2021/03/20 06:17:02;;;;;;;17.58;7.10;;;1.10;94.10;;;;;;5099501;28;20178;-81
2021/03/20 06:19:40;;;;;;;18.30;7.10;;;1.20;94.20;;;;;;5100093;28;20195;-80
2021/03/20 06:22:15;;;;;;;11.55;6.50;;;1.30;93.70;;;;;;5099673;28;20195;-80
2021/03/20 06:24:53;;;;;;;18.67;6.95;;;1.30;93.40;;;;;;5100758;28;20226;-80
2021/03/20 06:27:24;;;;;;;11.30;6.60;;;1.40;92.50;;;;;;5100982;28;20179;-81
2021/03/20 06:29:56;;;;;;;15.00;7.20;;;1.30;91.50;;;;;;5099751;28;20554;-81
2021/03/20 06:32:27;;;;;;;14.93;7.50;;;1.30;91.80;;;;;;5099415;28;20217;-81
2021/03/20 06:35:26;;;;;;;20.42;7.50;;;1.30;91.40;;;;;;5100241;28;20488;-80
2021/03/20 06:37:57;;;;;;;11.90;5.70;;;1.30;91.70;;;;;;5100602;28;20183;-80
2021/03/20 06:40:53;;;;;;;13.45;5.80;;;1.30;91.50;;;;;;5100323;28;20524;-80
2021/03/20 06:43:20;;;;;;;19.88;6.72;;;1.30;89.90;;;;;;5100773;28;20186;-81
2021/03/20 06:45:48;;;;;;;10.13;5.70;;;1.20;90.90;;;;;;5101257;28;20290;-80
2021/03/20 06:48:21;;;;;;;12.10;5.55;;;1.40;90.50;;;;;;5100595;28;20175;-80
2021/03/20 06:50:52;;;;;;;12.82;5.45;;;1.30;88.30;;;;;;5099775;28;20215;-81
2021/03/20 06:53:24;;;;;;;13.18;5.00;;;1.30;88.50;;;;;;5100067;28;20508;-81
2021/03/20 06:55:50;;;;;;;14.05;5.88;;;1.40;88.40;;;;;;5100384;28;20663;-82
2021/03/20 06:58:19;;;;;;;9.38;5.22;;;1.50;87.60;;;;;;5102001;28;20259;-82
2021/03/20 07:00:46;;;;;;;8.98;4.38;;;1.50;86.40;;;;;;5102265;28;20203;-82
2021/03/20 07:03:30;;;;;;;10.02;4.70;;;1.60;86.90;;;;;;5102789;28;20176;-81
2021/03/20 07:06:34;;;;;;;10.25;4.95;;;1.70;85.80;;;;;;5101480;28;20374;-81
2021/03/20 07:09:03;;;;;;;16.23;4.93;;;1.80;85.30;;;;;;5100751;28;20171;-81
2021/03/20 07:12:01;;;;;;;9.05;3.90;;;1.80;82.80;;;;;;5101319;28;20580;-82
2021/03/20 07:14:54;;;;;;;8.43;4.18;;;1.70;82.10;;;;;;5101314;28;20201;-82
2021/03/20 07:17:23;;;;;;;9.20;3.65;;;1.70;82.70;;;;;;5102875;28;20241;-81
2021/03/20 07:20:05;;;;;;;6.28;3.92;;;1.70;82.80;;;;;;5099304;28;20221;-83
2021/03/20 07:22:33;;;;;;;11.73;3.95;;;1.70;81.90;;;;;;5096984;28;20240;-83
2021/03/20 07:25:12;;;;;;;7.88;3.45;;;1.70;80.60;;;;;;5095159;28;20207;-84
2021/03/20 07:27:37;;;;;;;6.50;4.10;;;1.70;81.60;;;;;;5094957;28;20172;-84
2021/03/20 07:30:26;;;;;;;4.80;3.27;;;1.70;81.30;;;;;;5095247;28;20241;-84
2021/03/20 07:32:52;;;;;;;9.32;3.30;;;1.80;80.10;;;;;;5094823;28;20403;-84
2021/03/20 07:35:21;;;;;;;9.80;3.83;;;1.80;79.40;;;;;;5096323;28;20207;-84
2021/03/20 07:37:51;;;;;;;8.95;3.80;;;1.80;79.50;;;;;;5095100;28;20267;-84
2021/03/20 07:40:26;;;;;;;6.63;3.72;;;1.80;79.20;;;;;;5095320;28;20596;-84
2021/03/20 07:43:10;;;;;;;10.90;3.35;;;1.80;79.60;;;;;;5095302;28;20637;-84
2021/03/20 07:45:36;;;;;;;9.57;4.80;;;1.90;80.80;;;;;;5095350;28;20728;-84
2021/03/20 07:48:04;;;;;;;7.75;3.30;;;2.00;79.60;;;;;;5094504;28;20168;-84
2021/03/20 07:50:38;;;;;;;7.35;3.28;;;2.10;79.20;;;;;;5093672;28;20513;-84
2021/03/20 07:53:11;;;;;;;7.40;3.20;;;2.10;77.70;;;;;;5094027;28;20172;-84
2021/03/20 07:55:55;;;;;;;9.13;4.57;;;2.20;77.40;;;;;;5094583;28;20213;-84
2021/03/20 07:58:24;;;;;;;6.68;3.20;;;2.10;77.10;;;;;;5095253;28;20176;-83
2021/03/20 08:00:57;;;;;;;7.03;3.85;;;2.20;76.90;;;;;;5094818;28;20506;-84
2021/03/20 08:03:33;;;;;;;8.05;4.45;;;2.40;76.90;;;;;;5093574;28;20171;-84
2021/03/20 08:06:17;;;;;;;5.57;3.53;;;2.50;75.80;;;;;;5095267;28;20195;-84
2021/03/20 08:08:42;;;;;;;5.10;3.42;;;2.70;73.80;;;;;;5094870;28;20258;-82
2021/03/20 08:11:30;;;;;;;6.10;4.27;;;2.60;73.30;;;;;;5097068;28;20219;-81
2021/03/20 08:14:03;;;;;;;15.15;4.47;;;2.60;72.80;;;;;;5101051;28;20406;-82
2021/03/20 08:16:29;;;;;;;8.50;4.05;;;2.60;71.90;;;;;;5100212;28;20180;-82
2021/03/20 08:18:56;;;;;;;8.05;3.20;;;2.50;70.50;;;;;;5100009;28;20199;-82
2021/03/20 08:22:01;;;;;;;5.82;3.05;;;2.50;70.90;;;;;;5100733;28;20656;-82
2021/03/20 08:24:41;;;;;;;10.68;3.97;;;2.50;71.00;;;;;;5101634;28;20175;-83
2021/03/20 08:27:20;;;;;;;7.15;3.33;;;2.50;72.70;;;;;;5100937;28;20199;-83
2021/03/20 08:30:15;;;;;;;11.30;4.50;;;2.50;70.10;;;;;;5094262;28;20650;-83
2021/03/20 08:33:18;;;;;;;7.75;4.05;;;2.20;68.90;;;;;;5093045;28;20191;-84
2021/03/20 08:35:57;;;;;;;5.85;3.83;;;2.10;70.20;;;;;;5093325;28;20179;-83
2021/03/20 08:38:39;;;;;;;8.30;3.42;;;2.00;70.30;;;;;;5096807;28;20269;-83
2021/03/20 08:41:12;;;;;;;6.68;3.20;;;2.10;71.70;;;;;;5093341;28;20234;-84
2021/03/20 08:44:05;;;;;;;4.97;2.78;;;2.10;73.00;;;;;;5095028;28;20663;-84
2021/03/20 08:46:59;;;;;;;6.32;2.85;;;2.30;69.90;;;;;;5094584;28;20199;-84
2021/03/20 08:49:53;;;;;;;4.80;2.55;;;2.20;68.70;;;;;;5094004;28;20692;-83
2021/03/20 08:52:25;;;;;;;4.72;2.50;;;2.20;66.20;;;;;;5093524;28;20190;-83
2021/03/20 08:55:17;;;;;;;6.10;2.72;;;2.30;63.80;;;;;;5094099;28;20168;-83
2021/03/20 08:57:52;;;;;;;5.65;2.92;;;2.30;61.20;;;;;;5079586;28;20176;-84
2021/03/20 09:00:33;;;;;;;3.55;2.58;;;2.30;61.40;;;;;;5093252;28;20213;-84
2021/03/20 09:03:12;;;;;;;7.13;3.10;;;2.40;62.00;;;;;;5093190;28;20168;-83
2021/03/20 09:05:45;;;;;;;14.68;3.42;;;2.60;63.40;;;;;;5093614;28;20199;-83
2021/03/20 09:08:24;;;;;;;6.18;2.80;;;2.70;62.60;;;;;;5093048;28;20175;-83
2021/03/20 09:11:03;;;;;;;7.85;3.22;;;2.80;62.70;;;;;;5092720;28;20188;-83
2021/03/20 09:13:42;;;;;;;4.28;2.42;;;3.00;60.60;;;;;;5093821;28;20159;-83
2021/03/20 09:16:35;;;;;;;5.35;2.83;;;3.20;61.00;;;;;;5092727;28;20176;-83
2021/03/20 09:19:04;;;;;;;7.63;3.80;;;3.40;62.10;;;;;;5095479;28;20225;-83
2021/03/20 09:21:32;;;;;;;4.50;2.45;;;3.40;57.50;;;;;;5097303;28;20643;-83
2021/03/20 09:24:07;;;;;;;7.75;3.00;;;3.20;57.60;;;;;;5092341;28;20640;-84
2021/03/20 09:26:46;;;;;;;6.75;3.13;;;3.20;59.10;;;;;;5083514;28;20200;-84
2021/03/20 09:29:21;;;;;;;9.35;3.60;;;3.30;60.30;;;;;;5079221;28;20165;-83
2021/03/20 09:31:53;;;;;;;5.20;2.78;;;3.30;59.20;;;;;;5080755;28;20340;-84
2021/03/20 09:34:32;;;;;;;6.20;2.88;;;3.40;60.00;;;;;;5079652;28;20168;-84
2021/03/20 09:37:26;;;;;;;6.15;3.67;;;3.60;59.20;;;;;;5079409;28;20194;-82
2021/03/20 09:39:54;;;;;;;4.53;2.83;;;3.90;58.80;;;;;;5086935;28;20221;-84
2021/03/20 09:42:26;;;;;;;5.13;3.15;;;3.90;57.40;;;;;;5099522;28;20226;-83
2021/03/20 09:45:05;;;;;;;8.05;3.10;;;4.00;56.60;;;;;;5097265;28;20541;-84
2021/03/20 09:47:31;;;;;;;5.53;2.67;;;3.70;55.10;;;;;;5100166;28;20530;-84
2021/03/20 09:49:59;;;;;;;10.00;3.20;;;3.50;54.90;;;;;;5102438;28;20168;-84
2021/03/20 09:52:32;;;;;;;5.43;3.00;;;3.50;55.70;;;;;;5103127;28;20847;-83
2021/03/20 09:55:30;;;;;;;14.30;3.40;;;3.60;55.50;;;;;;5103030;28;20167;-83
2021/03/20 09:57:57;;;;;;;7.30;2.92;;;3.80;54.70;;;;;;5103213;28;20160;-83
2021/03/20 10:00:52;;;;;;;7.40;2.88;;;3.90;55.00;;;;;;5103631;28;20654;-83
2021/03/20 10:03:37;;;;;;;7.68;3.20;;;4.00;53.40;;;;;;5099244;28;20176;-83
2021/03/20 10:06:25;;;;;;;7.55;1.88;;;4.30;53.00;;;;;;5099362;28;20283;-83
2021/03/20 10:09:07;;;;;;;3.45;2.40;;;4.50;49.20;;;;;;5098868;28;20275;-82
2021/03/20 10:12:01;;;;;;;9.20;2.50;;;4.70;46.00;;;;;;5098495;28;20187;-82
2021/03/20 10:14:34;;;;;;;11.57;2.83;;;4.80;46.70;;;;;;5098265;28;20164;-82
2021/03/20 10:17:15;;;;;;;4.88;2.55;;;5.00;45.20;;;;;;5098972;28;20225;-82
2021/03/20 10:19:47;;;;;;;4.55;2.03;;;5.20;46.30;;;;;;5098263;28;20267;-82
2021/03/20 10:22:45;;;;;;;3.33;2.22;;;5.20;43.70;;;;;;5098088;28;20198;-82
2021/03/20 10:25:14;;;;;;;4.10;2.28;;;5.00;42.30;;;;;;5098959;28;20203;-82
2021/03/20 10:27:47;;;;;;;4.53;2.15;;;4.80;42.80;;;;;;5099816;28;20221;-82
2021/03/20 10:30:18;;;;;;;11.43;2.50;;;4.60;44.50;;;;;;5098710;28;20225;-82
2021/03/20 10:33:04;;;;;;;14.52;2.60;;;4.70;48.20;;;;;;5098545;28;20196;-82
2021/03/20 10:35:33;;;;;;;7.65;3.08;;;4.90;45.80;;;;;;5098659;28;20278;-82
2021/03/20 10:38:21;;;;;;;4.00;2.50;;;4.80;46.00;;;;;;5098647;28;20233;-82
2021/03/20 10:41:28;;;;;;;29.83;5.38;;;5.00;47.30;;;;;;5098664;28;20617;-82
2021/03/20 10:44:10;;;;;;;5.38;2.05;;;5.10;45.70;;;;;;5086331;28;20183;-82
2021/03/20 10:46:38;;;;;;;5.85;2.38;;;5.00;43.90;;;;;;5098106;28;20202;-82
2021/03/20 10:49:21;;;;;;;22.05;2.63;;;4.90;44.80;;;;;;5098344;28;20271;-82
2021/03/20 10:51:50;;;;;;;4.80;2.10;;;4.80;46.30;;;;;;5097713;28;20589;-82
2021/03/20 10:54:27;;;;;;;6.07;2.40;;;4.90;44.80;;;;;;5098475;28;20190;-82
2021/03/20 10:57:00;;;;;;;6.90;2.35;;;5.00;44.80;;;;;;5096445;28;20195;-82
2021/03/20 10:59:31;;;;;;;4.50;2.33;;;4.90;40.70;;;;;;5098364;28;20636;-82
2021/03/20 11:01:57;;;;;;;4.10;1.95;;;4.80;42.60;;;;;;5097758;28;20727;-82
2021/03/20 11:04:32;;;;;;;13.32;2.33;;;5.00;42.80;;;;;;5099066;28;20221;-82
2021/03/20 11:07:00;;;;;;;2.78;2.00;;;5.10;43.50;;;;;;5098288;28;20199;-83
2021/03/20 11:09:28;;;;;;;9.00;2.40;;;5.00;43.10;;;;;;5099746;28;20655;-83
2021/03/20 11:12:07;;;;;;;5.60;1.95;;;5.10;44.90;;;;;;5097992;28;20655;-83
2021/03/20 11:14:53;;;;;;;4.63;2.10;;;5.40;45.00;;;;;;5097512;28;20655;-82
2021/03/20 11:17:22;;;;;;;5.30;2.35;;;5.50;43.90;;;;;;5100406;28;20235;-82
2021/03/20 11:19:58;;;;;;;3.25;2.05;;;5.60;44.00;;;;;;5098326;28;20258;-82
2021/03/20 11:22:39;;;;;;;5.85;2.08;;;5.50;42.40;;;;;;5098408;28;20233;-82
2021/03/20 11:25:26;;;;;;;3.50;2.35;;;5.30;43.20;;;;;;5099115;28;20207;-82
2021/03/20 11:27:58;;;;;;;3.85;2.50;;;5.50;42.60;;;;;;5099390;28;20171;-82
2021/03/20 11:30:40;;;;;;;5.95;3.08;;;5.70;41.80;;;;;;5098013;28;20170;-82
2021/03/20 11:33:06;;;;;;;7.72;3.35;;;6.00;42.90;;;;;;5097966;28;20255;-82
2021/03/20 11:35:41;;;;;;;4.32;2.08;;;6.20;43.20;;;;;;5095404;28;20176;-82
2021/03/20 11:38:15;;;;;;;16.40;3.50;;;6.40;42.40;;;;;;5097584;28;20177;-82
2021/03/20 11:40:46;;;;;;;10.82;2.97;;;6.50;42.30;;;;;;5097644;28;20167;-82
2021/03/20 11:43:21;;;;;;;5.93;2.47;;;6.70;42.70;;;;;;5097799;28;20177;-82
2021/03/20 11:45:47;;;;;;;4.93;2.95;;;7.00;42.20;;;;;;5098592;28;20195;-82
2021/03/20 11:48:36;;;;;;;7.15;3.75;;;7.30;42.60;;;;;;5097752;28;20179;-82
2021/03/20 11:51:05;;;;;;;6.63;2.88;;;7.40;41.00;;;;;;5097580;28;20192;-83
2021/03/20 11:53:43;;;;;;;3.47;2.42;;;7.50;41.40;;;;;;5097061;28;20168;-83
2021/03/20 11:56:19;;;;;;;5.05;3.47;;;7.60;40.30;;;;;;5097786;28;20172;-82
2021/03/20 11:58:59;;;;;;;4.93;3.33;;;7.60;41.10;;;;;;5097364;28;20201;-82
2021/03/20 12:01:34;;;;;;;6.10;2.97;;;7.70;41.20;;;;;;5096452;28;20687;-83
2021/03/20 12:04:27;;;;;;;7.18;3.10;;;7.80;42.00;;;;;;5096125;28;20175;-81
2021/03/20 12:07:23;;;;;;;4.72;2.42;;;7.80;42.90;;;;;;5096561;28;20199;-81
2021/03/20 12:09:50;;;;;;;3.83;2.20;;;7.40;42.60;;;;;;5095485;28;20164;-81
2021/03/20 12:12:16;;;;;;;5.57;3.30;;;7.30;42.90;;;;;;5096273;28;20191;-82
2021/03/20 12:14:47;;;;;;;7.17;3.30;;;7.40;43.70;;;;;;5096594;28;20667;-85
2021/03/20 12:17:19;;;;;;;5.22;2.33;;;7.40;42.80;;;;;;5096618;28;20402;-82
2021/03/20 12:19:57;;;;;;;6.20;3.00;;;7.50;42.70;;;;;;5097265;28;20259;-82
2021/03/20 12:22:36;;;;;;;10.20;3.90;;;7.70;42.60;;;;;;5096393;28;20274;-81
2021/03/20 12:25:32;;;;;;;8.35;3.20;;;7.80;38.90;;;;;;5095635;28;20555;-83
2021/03/20 12:28:25;;;;;;;8.30;3.65;;;7.60;42.80;;;;;;5093695;28;20613;-82
2021/03/20 12:31:14;;;;;;;8.30;2.95;;;7.40;42.30;;;;;;5096015;28;20195;-82
2021/03/20 12:34:01;;;;;;;6.72;3.20;;;7.50;40.80;;;;;;5094829;28;20298;-82
2021/03/20 12:36:41;;;;;;;5.00;2.90;;;7.50;42.90;;;;;;5093470;28;20164;-83
2021/03/20 12:39:13;;;;;;;6.60;3.30;;;7.60;39.90;;;;;;5095332;28;20704;-82
2021/03/20 12:41:40;;;;;;;3.67;2.22;;;7.70;41.40;;;;;;5087776;28;20188;-82
2021/03/20 12:44:17;;;;;;;4.32;2.83;;;7.70;41.00;;;;;;5090246;28;20530;-80
2021/03/20 12:46:55;;;;;;;5.88;3.13;;;7.80;42.40;;;;;;5095624;28;20191;-82
2021/03/20 12:49:25;;;;;;;5.70;3.63;;;7.90;41.60;;;;;;5095324;28;20167;-83
2021/03/20 12:52:18;;;;;;;5.70;3.40;;;7.90;40.60;;;;;;5096312;28;20197;-83
2021/03/20 12:54:47;;;;;;;6.00;3.47;;;7.90;44.10;;;;;;5095893;28;20273;-84
2021/03/20 12:57:22;;;;;;;3.42;2.88;;;8.00;41.90;;;;;;5094431;28;20175;-83
2021/03/20 12:59:48;;;;;;;5.28;3.83;;;7.80;43.10;;;;;;5092791;28;20178;-84
2021/03/20 13:02:32;;;;;;;5.75;3.25;;;7.60;41.60;;;;;;5094281;28;20196;-84
2021/03/20 13:04:58;;;;;;;5.00;3.67;;;7.70;44.10;;;;;;5093400;28;20549;-83
2021/03/20 13:07:24;;;;;;;7.57;3.60;;;8.00;41.90;;;;;;5095239;28;20168;-82
2021/03/20 13:09:53;;;;;;;6.03;3.30;;;8.00;42.60;;;;;;5094805;28;20471;-84
2021/03/20 13:12:20;;;;;;;11.50;3.50;;;8.00;41.20;;;;;;5094858;28;20437;-85
2021/03/20 13:14:46;;;;;;;6.43;3.13;;;8.00;41.90;;;;;;5095128;28;20862;-84
2021/03/20 13:17:13;;;;;;;6.07;3.63;;;8.00;42.00;;;;;;5093533;28;20197;-84
2021/03/20 13:19:43;;;;;;;6.53;4.20;;;7.50;43.10;;;;;;5094515;28;20623;-84
2021/03/20 13:22:09;;;;;;;6.38;3.42;;;7.60;47.30;;;;;;5091751;28;20739;-82
2021/03/20 13:24:35;;;;;;;6.30;3.67;;;7.80;45.30;;;;;;5094656;28;20210;-83
2021/03/20 13:27:03;;;;;;;8.48;3.50;;;8.00;44.90;;;;;;5096109;28;20353;-80
2021/03/20 13:29:29;;;;;;;7.53;3.13;;;8.00;44.00;;;;;;5096388;28;20300;-82
2021/03/20 13:31:55;;;;;;;8.13;3.67;;;8.20;44.10;;;;;;5095284;28;20215;-81
2021/03/20 13:34:21;;;;;;;6.20;3.73;;;8.10;41.80;;;;;;5095524;28;20216;-80